Indianapolis Mount Comfort, IN

3:52 PM EST on December 15, 2019 (GMT -0500)
Mount Comfort

Weather History for KMQJ - June, 2019

Change the Weather History Date:

Saturday, June 8, 2019

  Actual Average (KEYE) Record (KEYE)
Temperature  
Mean Temperature 70 °F -  
Max Temperature 78 °F 75 °F 93 °F (2011)
Min Temperature 62 °F 59 °F 53 °F (2016)
Cooling Degree Days 5    
Growing Degree Days 20 (Base 50)    
Moisture  
Dew Point 65 °F    
Average Humidity 83    
Maximum Humidity 94    
Minimum Humidity 74    
Precipitation  
Precipitation 0.00 in - - ()
Sea Level Pressure  
Sea Level Pressure 29.92 in    
Wind  
Wind Speed 11 mph (East)    
Max Wind Speed 17 mph    
Max Gust Speed 25 mph    
Visibility 10 miles    
Events      
Averages and records for this station are not official NWS values.
T = Trace of Precipitation, MM = Missing Value Source: NWS Daily Summary

Daily Weather History Graph

Daily Weather History Graph

Search for Another Location

Airport or City:

Astronomy

Jun. 08, 2019 Rise Set
Actual Time 6:15 AM EDT 9:10 PM EDT
Civil Twilight 5:42 AM EDT 9:42 PM EDT
Nautical Twilight 5:01 AM EDT 10:23 PM EDT
Astronomical Twilight 4:14 AM EDT 11:11 PM EDT
Moon 11:42 AM EDT (6/8) 1:11 AM EDT (6/8)
Length of Visible Light 15h 59m
Length of Day
14h 55m
Waxing Crescent, 32% of the Moon is Illuminated
Jun 8
Waxing Crescent
Jun 10
First Quarter
Jun 17
Full
Jun 25
Last Quarter
Jul 2
New

Hourly Weather History & Observations

Time (EDT) Temp. Dew Point Humidity Pressure Visibility Wind Dir Wind Speed Gust Speed Precip Events Conditions
12:03 AM 66.2 °F 60.8 °F 83% 29.93 in 10.0 mi ENE 10.4 mph - N/A   Clear
12:24 AM 66.2 °F 59.0 °F 78% 29.93 in 10.0 mi ENE 12.7 mph 17.3 mph N/A   Clear
12:43 AM 66.2 °F 59.0 °F 78% 29.93 in 10.0 mi NE 10.4 mph - N/A   Clear
1:02 AM 64.4 °F 57.2 °F 77% 29.92 in 10.0 mi ENE 11.5 mph - N/A   Clear
1:25 AM 64.4 °F 57.2 °F 77% 29.92 in 10.0 mi ENE 9.2 mph - N/A   Clear
1:43 AM 64.4 °F 57.2 °F 77% 29.91 in 10.0 mi ENE 9.2 mph - N/A   Clear
2:03 AM 64.4 °F 57.2 °F 77% 29.90 in 10.0 mi ENE 10.4 mph - N/A   Clear
2:23 AM 64.4 °F 57.2 °F 77% 29.90 in 10.0 mi ENE 11.5 mph - N/A   Clear
2:42 AM 64.4 °F 57.2 °F 77% 29.90 in 10.0 mi ENE 11.5 mph - N/A   Clear
3:04 AM 64.4 °F 57.2 °F 77% 29.90 in 10.0 mi ENE 10.4 mph - N/A   Clear
3:24 AM 64.4 °F 57.2 °F 77% 29.89 in 10.0 mi ENE 9.2 mph - N/A   Clear
3:46 AM 64.4 °F 57.2 °F 77% 29.89 in 10.0 mi NE 9.2 mph - N/A   Clear
4:08 AM 62.6 °F 57.2 °F 82% 29.89 in 10.0 mi NE 8.1 mph - N/A   Clear
4:29 AM 62.6 °F 57.2 °F 82% 29.89 in 10.0 mi NE 8.1 mph - N/A   Clear
4:47 AM 62.6 °F 57.2 °F 82% 29.89 in 10.0 mi ENE 8.1 mph - N/A   Clear
5:03 AM 62.6 °F 57.2 °F 82% 29.89 in 10.0 mi ENE 9.2 mph - N/A   Clear
5:26 AM 62.6 °F 57.2 °F 82% 29.89 in 10.0 mi ENE 9.2 mph - N/A   Clear
5:45 AM 62.6 °F 57.2 °F 82% 29.90 in 10.0 mi ENE 8.1 mph - N/A   Clear
6:05 AM 62.6 °F 59.0 °F 88% 29.90 in 10.0 mi ENE 9.2 mph - N/A   Clear
6:30 AM 64.4 °F 59.0 °F 83% 29.90 in 10.0 mi East 9.2 mph - N/A   Clear
6:49 AM 64.4 °F 60.8 °F 88% 29.90 in 10.0 mi East 9.2 mph - N/A   Clear
7:06 AM 64.4 °F 60.8 °F 88% 29.91 in 10.0 mi East 9.2 mph - N/A   Clear
7:26 AM 66.2 °F 60.8 °F 83% 29.92 in 10.0 mi ENE 11.5 mph 17.3 mph N/A   Clear
7:45 AM 66.2 °F 62.6 °F 88% 29.92 in 10.0 mi East 11.5 mph - N/A   Clear
8:03 AM 66.2 °F 62.6 °F 88% 29.92 in 10.0 mi East 11.5 mph - N/A   Clear
8:22 AM 66.2 °F 62.6 °F 88% 29.92 in 10.0 mi ENE 12.7 mph - N/A   Clear
8:43 AM 68.0 °F 64.4 °F 88% 29.92 in 10.0 mi East 11.5 mph - N/A   Clear
9:05 AM 68.0 °F 64.4 °F 88% 29.92 in 10.0 mi East 10.4 mph - N/A   Clear
9:25 AM 69.8 °F 66.2 °F 88% 29.92 in 10.0 mi East 11.5 mph - N/A   Clear
9:43 AM 71.6 °F 66.2 °F 83% 29.92 in 10.0 mi East 10.4 mph - N/A   Clear
10:02 AM 71.6 °F 66.2 °F 83% 29.92 in 10.0 mi East 11.5 mph - N/A   Clear
10:22 AM 73.4 °F 68.0 °F 83% 29.92 in 10.0 mi East 13.8 mph - N/A   Clear
10:43 AM 77.0 °F 68.0 °F 74% 29.91 in 10.0 mi East 11.5 mph 19.6 mph N/A   Clear
11:04 AM 77.0 °F 68.0 °F 74% 29.91 in 10.0 mi East 12.7 mph 18.4 mph N/A   Clear
11:23 AM 77.0 °F 68.0 °F 74% 29.92 in 10.0 mi East 10.4 mph - N/A   Scattered Clouds
11:45 AM 75.2 °F 68.0 °F 78% 29.92 in 10.0 mi East 8.1 mph - N/A   Mostly Cloudy
12:08 PM 75.2 °F 68.0 °F 78% 29.92 in 10.0 mi ESE 15.0 mph - N/A   Mostly Cloudy
12:24 PM 75.2 °F 68.0 °F 78% 29.93 in 10.0 mi ESE 11.5 mph - N/A   Mostly Cloudy
12:45 PM 73.4 °F 68.0 °F 83% 29.93 in 10.0 mi East 13.8 mph - N/A   Overcast
1:04 PM 73.4 °F 68.0 °F 83% 29.93 in 10.0 mi East 13.8 mph - N/A   Overcast
1:22 PM 75.2 °F 68.0 °F 78% 29.93 in 10.0 mi East 12.7 mph - N/A   Overcast
1:43 PM 77.0 °F 69.8 °F 78% 29.92 in 10.0 mi East 16.1 mph - N/A   Mostly Cloudy
2:04 PM 77.0 °F 68.0 °F 74% 29.92 in 10.0 mi East 13.8 mph 24.2 mph N/A   Mostly Cloudy
2:24 PM 75.2 °F 68.0 °F 78% 29.92 in 10.0 mi East 11.5 mph - N/A   Overcast
3:07 PM 78.8 °F 69.8 °F 74% 29.92 in 10.0 mi East 15.0 mph - N/A   Overcast
3:23 PM 77.0 °F 69.8 °F 78% 29.92 in 10.0 mi ESE 15.0 mph 21.9 mph N/A   Overcast
3:44 PM 77.0 °F 69.8 °F 78% 29.92 in 10.0 mi ESE 17.3 mph - N/A   Overcast
4:05 PM 77.0 °F 69.8 °F 78% 29.91 in 10.0 mi East 15.0 mph 20.7 mph N/A   Mostly Cloudy
4:24 PM 77.0 °F 69.8 °F 78% 29.91 in 10.0 mi East 17.3 mph 20.7 mph N/A   Mostly Cloudy
4:43 PM 75.2 °F 68.0 °F 78% 29.91 in 10.0 mi East 13.8 mph - N/A   Scattered Clouds
5:02 PM 75.2 °F 68.0 °F 78% 29.91 in 10.0 mi East 13.8 mph - N/A   Mostly Cloudy
5:25 PM 75.2 °F 69.8 °F 83% 29.90 in 10.0 mi East 15.0 mph 19.6 mph N/A   Scattered Clouds
5:45 PM 75.2 °F 69.8 °F 83% 29.91 in 10.0 mi East 11.5 mph - N/A   Scattered Clouds
6:03 PM 75.2 °F 69.8 °F 83% 29.91 in 10.0 mi East 9.2 mph 18.4 mph N/A   Mostly Cloudy
6:25 PM 73.4 °F 68.0 °F 83% 29.92 in 10.0 mi East 16.1 mph - N/A   Overcast
6:44 PM 73.4 °F 68.0 °F 83% 29.92 in 10.0 mi East 10.4 mph - N/A   Overcast
7:05 PM 73.4 °F 68.0 °F 83% 29.91 in 10.0 mi East 9.2 mph - N/A   Overcast
7:28 PM 73.4 °F 68.0 °F 83% 29.91 in 10.0 mi East 13.8 mph 18.4 mph N/A   Overcast
7:45 PM 73.4 °F 68.0 °F 83% 29.91 in 10.0 mi East 15.0 mph 19.6 mph N/A   Overcast
8:03 PM 71.6 °F 68.0 °F 88% 29.92 in 10.0 mi East 16.1 mph 23.0 mph N/A   Overcast
8:24 PM 71.6 °F 68.0 °F 88% 29.92 in 10.0 mi East 16.1 mph 21.9 mph N/A   Overcast
8:46 PM 69.8 °F 68.0 °F 94% 29.93 in 10.0 mi East 15.0 mph - N/A   Overcast
9:04 PM 69.8 °F 68.0 °F 94% 29.93 in 10.0 mi East 12.7 mph 25.3 mph N/A   Overcast
9:26 PM 69.8 °F 68.0 °F 94% 29.93 in 10.0 mi East 10.4 mph - N/A   Overcast
9:43 PM 69.8 °F 68.0 °F 94% 29.93 in 10.0 mi East 10.4 mph - N/A   Overcast
10:06 PM 69.8 °F 68.0 °F 94% 29.93 in 10.0 mi East 8.1 mph - N/A   Overcast
10:28 PM 69.8 °F 68.0 °F 94% 29.93 in 10.0 mi East 8.1 mph - N/A   Overcast
10:47 PM 69.8 °F 68.0 °F 94% 29.94 in 10.0 mi East 11.5 mph 16.1 mph N/A   Overcast
11:04 PM 69.8 °F 68.0 °F 94% 29.93 in 10.0 mi East 12.7 mph - N/A   Overcast
11:26 PM 69.8 °F 68.0 °F 94% 29.93 in 10.0 mi East 11.5 mph - N/A   Overcast
11:49 PM 69.8 °F 66.2 °F 88% 29.93 in 10.0 mi East 11.5 mph - N/A   Overcast